16 de agosto de 2022

Hora Código Clima Temp. Visibilidade Tecto Vento METAR/SPECI
15:00
V
31 °C 10 km+ - 320° 320° 17 kt METAR LFBO 161300Z AUTO 32017KT CAVOK 31/15 Q1006 TEMPO VRB15G25KT TSRA BECMG SCT050 FEW070CB BKN130
14:30
V
31 °C 10 km+ - 310° 310° 17 kt METAR LFBO 161230Z AUTO 31017KT CAVOK 31/16 Q1006 TEMPO VRB15G25KT TSRA BECMG SCT050 FEW070CB BKN130
14:00
V
32 °C 10 km+ 21.000 ft Var Var 6 kt METAR LFBO 161200Z AUTO VRB06KT 9999 FEW009 BKN210 32/13 Q1006 TEMPO VRB15G25KT TSRA BECMG SCT050 FEW070CB BKN130
13:30
V
32 °C 10 km+ - 120° 120° 7 kt METAR LFBO 161130Z AUTO 12007KT 080V180 CAVOK 32/13 Q1006 BECMG 30012KT FEW080CB
13:00
V
31 °C 10 km+ - 120° 120° 11 kt METAR LFBO 161100Z AUTO 12011KT 9999 FEW009 SCT230 31/13 Q1005 BECMG 30012KT FEW080CB
12:30
V
33 °C 10 km+ - 130° 130° 15 kt METAR LFBO 161030Z AUTO 13015KT 9999 FEW008 33/13 Q1005 BECMG 30012KT FEW080CB
12:00
V
31 °C 10 km+ - 140° 140° 14 kt METAR LFBO 161000Z AUTO 14014KT CAVOK 31/13 Q1005 BECMG 30012KT FEW080CB
11:30
V
30 °C 10 km+ - 130° 130° 11 kt METAR LFBO 160930Z AUTO 13011KT 100V160 CAVOK 30/13 Q1006 BECMG 30012KT FEW080CB
11:00
V
29 °C 10 km+ - 140° 140° 14 kt METAR LFBO 160900Z AUTO 14014KT CAVOK 29/13 Q1006 BECMG VRB03KT
10:30
V
27 °C 10 km+ - 120° 120° 9 kt METAR LFBO 160830Z AUTO 12009KT 090V150 CAVOK 27/13 Q1006 NOSIG
10:00
V
26 °C 10 km+ - 140° 140° 6 kt METAR LFBO 160800Z AUTO 14006KT 090V170 CAVOK 26/13 Q1006 NOSIG
09:30
V
24 °C 10 km+ - 130° 130° 11 kt METAR LFBO 160730Z AUTO 13011KT 9999 FEW008 24/13 Q1006 NOSIG
09:00
V
22 °C 10 km+ - 130° 130° 9 kt METAR LFBO 160700Z AUTO 13009KT CAVOK 22/14 Q1006 NOSIG
08:30
V
21 °C 10 km+ - 130° 130° 9 kt METAR LFBO 160630Z AUTO 13009KT CAVOK 21/14 Q1006 NOSIG
08:00
V
20 °C 10 km+ - 130° 130° 7 kt METAR LFBO 160600Z AUTO 13007KT CAVOK 20/14 Q1007 NOSIG
07:30
V
18 °C 10 km+ - 110° 110° 4 kt METAR LFBO 160530Z AUTO 11004KT 090V150 CAVOK 18/14 Q1007 NOSIG
07:00
V
18 °C 10 km+ - 160° 160° 2 kt METAR LFBO 160500Z AUTO 16002KT CAVOK 18/14 Q1007 TEMPO 14012KT
06:30
V
18 °C 10 km+ - 180° 180° 3 kt METAR LFBO 160430Z AUTO 18003KT 140V210 CAVOK 18/14 Q1007 NOSIG
06:00
V
18 °C 10 km+ - 180° 180° 3 kt METAR LFBO 160400Z AUTO 18003KT CAVOK 18/14 Q1007 NOSIG
05:30
V
18 °C 10 km+ - 170° 170° 3 kt METAR LFBO 160330Z AUTO 17003KT CAVOK 18/14 Q1007 NOSIG
05:00
V
19 °C 10 km+ - 280° 280° 2 kt METAR LFBO 160300Z AUTO 28002KT CAVOK 19/13 Q1008 NOSIG
04:30
V
20 °C 10 km+ - 310° 310° 3 kt METAR LFBO 160230Z AUTO 31003KT CAVOK 20/13 Q1008 NOSIG
04:00
V
20 °C 10 km+ - Var Var 2 kt METAR LFBO 160200Z AUTO VRB02KT CAVOK 20/14 Q1008 NOSIG
03:30
V
21 °C 10 km+ - Var Var 3 kt METAR LFBO 160130Z AUTO VRB03KT CAVOK 21/13 Q1008 NOSIG
03:00
V
21 °C 10 km+ - 300° 300° 5 kt METAR LFBO 160100Z AUTO 30005KT CAVOK 21/13 Q1009 NOSIG
02:30
V
21 °C 10 km+ - 300° 300° 4 kt METAR LFBO 160030Z AUTO 30004KT CAVOK 21/13 Q1009 NOSIG
02:00
V
22 °C 10 km+ - 300° 300° 3 kt METAR LFBO 160000Z AUTO 30003KT CAVOK 22/13 Q1009 NOSIG
01:30
V
22 °C 10 km+ - 330° 330° 3 kt METAR LFBO 152330Z AUTO 33003KT 310V020 CAVOK 22/13 Q1009 NOSIG
01:00
V
23 °C 10 km+ - 320° 320° 4 kt METAR LFBO 152300Z AUTO 32004KT CAVOK 23/13 Q1009 NOSIG
00:30
V
24 °C 10 km+ - 320° 320° 5 kt METAR LFBO 152230Z AUTO 32005KT CAVOK 24/13 Q1009 NOSIG
00:00
V
23 °C 10 km+ - 290° 290° 5 kt METAR LFBO 152200Z AUTO 29005KT CAVOK 23/13 Q1009 NOSIG

15 de agosto de 2022

Hora Código Clima Temp. Visibilidade Tecto Vento METAR/SPECI
23:30
V
24 °C 10 km+ - 300° 300° 5 kt METAR LFBO 152130Z AUTO 30005KT CAVOK 24/13 Q1009 NOSIG
23:00
V
25 °C 10 km+ - 340° 340° 5 kt METAR LFBO 152100Z AUTO 34005KT CAVOK 25/13 Q1009 NOSIG
22:30
V
26 °C 10 km+ - 320° 320° 7 kt METAR LFBO 152030Z AUTO 32007KT CAVOK 26/13 Q1009 NOSIG
22:00
V
26 °C 10 km+ - 320° 320° 8 kt METAR LFBO 152000Z AUTO 32008KT CAVOK 26/13 Q1009 NOSIG
21:30
V
27 °C 10 km+ - 340° 340° 6 kt METAR LFBO 151930Z AUTO 34006KT CAVOK 27/13 Q1009 NOSIG
21:00
V
27 °C 10 km+ - 310° 310° 7 kt METAR LFBO 151900Z AUTO 31007KT CAVOK 27/13 Q1009 NOSIG
20:30
V
28 °C 10 km+ - 300° 300° 7 kt METAR LFBO 151830Z AUTO 30007KT CAVOK 28/13 Q1008 NOSIG
20:00
V
28 °C 10 km+ - 320° 320° 8 kt METAR LFBO 151800Z AUTO 32008KT CAVOK 28/12 Q1008 NOSIG
19:30
V
28 °C 10 km+ - 310° 310° 3 kt METAR LFBO 151730Z AUTO 31003KT 270V020 CAVOK 28/12 Q1008 NOSIG
19:00
V
29 °C 10 km+ - 340° 340° 8 kt METAR LFBO 151700Z AUTO 34008KT 320V020 CAVOK 29/13 Q1008 NOSIG
18:30
V
29 °C 10 km+ - 340° 340° 8 kt METAR LFBO 151630Z AUTO 34008KT 300V030 CAVOK 29/13 Q1008 NOSIG
18:00
V
28 °C 10 km+ - 340° 340° 7 kt METAR LFBO 151600Z AUTO 34007KT 290V050 CAVOK 28/13 Q1009 NOSIG
17:30
V
29 °C 10 km+ - 320° 320° 8 kt METAR LFBO 151530Z AUTO 32008KT 290V360 CAVOK 29/12 Q1009 NOSIG
17:00
V
29 °C 10 km+ - 330° 330° 5 kt METAR LFBO 151500Z AUTO 33005KT 260V030 CAVOK 29/12 Q1009 NOSIG
16:30
V
29 °C 10 km+ - 290° 290° 5 kt METAR LFBO 151430Z AUTO 29005KT 200V330 CAVOK 29/12 Q1009 NOSIG
16:00
V
29 °C 10 km+ - 350° 350° 9 kt METAR LFBO 151400Z AUTO 35009KT CAVOK 29/13 Q1009 BECMG 29010KT
15:30
V
29 °C 10 km+ - 330° 330° 8 kt METAR LFBO 151330Z AUTO 33008KT 280V060 CAVOK 29/13 Q1009 NOSIG
15:00
V
29 °C 10 km+ - 290° 290° 7 kt METAR LFBO 151300Z AUTO 29007KT 220V010 CAVOK 29/13 Q1010 NOSIG
14:30
V
28 °C 10 km+ - 330° 330° 9 kt METAR LFBO 151230Z AUTO 33009KT 270V010 CAVOK 28/13 Q1010 NOSIG
14:00
V
27 °C 10 km+ - 270° 270° 6 kt METAR LFBO 151200Z AUTO 27006KT 180V320 CAVOK 27/13 Q1010 NOSIG
13:30
V
27 °C 10 km+ 4.800 ft 310° 310° 5 kt METAR LFBO 151130Z AUTO 31005KT 230V360 9999 BKN048 BKN056 27/14 Q1010 NOSIG
13:00
V
26 °C 10 km+ 4.300 ft 240° 240° 7 kt METAR LFBO 151100Z AUTO 24007KT 180V310 9999 BKN043 BKN050 26/14 Q1011 NOSIG
12:30
V
25 °C 10 km+ - Var Var 4 kt METAR LFBO 151030Z AUTO VRB04KT 9999 FEW040 SCT056 25/14 Q1011 NOSIG
12:00
V
24 °C 10 km+ 5.200 ft 260° 260° 4 kt METAR LFBO 151000Z AUTO 26004KT 220V340 9999 FEW036 BKN052 24/14 Q1011 NOSIG
11:30
V
24 °C 10 km+ 5.000 ft Var Var 2 kt METAR LFBO 150930Z AUTO VRB02KT 9999 FEW033 OVC050 24/15 Q1011 NOSIG
11:00
V
22 °C 10 km+ 4.900 ft 310° 310° 3 kt METAR LFBO 150900Z AUTO 31003KT 210V020 9999 FEW030 OVC049 22/15 Q1011 NOSIG
10:30
V
22 °C 10 km+ 4.800 ft 290° 290° 4 kt METAR LFBO 150830Z AUTO 29004KT 240V330 9999 FEW029 OVC048 22/15 Q1011 NOSIG
10:00
V
21 °C 10 km+ 4.800 ft 330° 330° 5 kt METAR LFBO 150800Z AUTO 33005KT 300V360 9999 OVC048 21/14 Q1011 NOSIG
09:30
V
21 °C 10 km+ 4.800 ft 300° 300° 6 kt METAR LFBO 150730Z AUTO 30006KT 250V330 9999 BKN048 OVC056 21/14 Q1011 NOSIG
09:00
V
21 °C 10 km+ 4.800 ft 300° 300° 5 kt METAR LFBO 150700Z AUTO 30005KT 270V330 9999 OVC048 21/14 Q1011 NOSIG
08:30
V
21 °C 10 km+ 4.800 ft 310° 310° 5 kt METAR LFBO 150630Z AUTO 31005KT 280V340 9999 OVC048 21/14 Q1011 NOSIG
08:00
V
20 °C 10 km+ 4.500 ft 310° 310° 6 kt METAR LFBO 150600Z AUTO 31006KT 9999 BKN045 OVC056 20/14 Q1011 NOSIG
07:30
V
20 °C 10 km+ 4.400 ft 290° 290° 8 kt METAR LFBO 150530Z AUTO 29008KT 240V300 9999 BKN044 OVC050 20/14 Q1011 NOSIG
07:00
V
20 °C 10 km+ 4.200 ft 290° 290° 6 kt METAR LFBO 150500Z AUTO 29006KT 260V320 9999 OVC042 20/14 Q1011 NOSIG
06:30
V
21 °C 10 km+ 4.300 ft 300° 300° 6 kt METAR LFBO 150430Z AUTO 30006KT 9999 BKN043 21/14 Q1011 NOSIG
06:00
V
21 °C 10 km+ 3.900 ft 290° 290° 6 kt METAR LFBO 150400Z AUTO 29006KT 9999 OVC039 21/14 Q1011 NOSIG
05:30
V
21 °C 10 km+ 3.600 ft 320° 320° 6 kt METAR LFBO 150330Z AUTO 32006KT 9999 OVC036 21/15 Q1011 NOSIG
05:00
V
21 °C 10 km+ 3.800 ft 320° 320° 7 kt METAR LFBO 150300Z AUTO 32007KT 9999 BKN038 OVC060 21/15 Q1011 NOSIG
04:30
V
21 °C 10 km+ 6.000 ft 310° 310° 8 kt METAR LFBO 150230Z AUTO 31008KT 9999 FEW037 BKN060 21/15 Q1011 NOSIG
04:00
V
21 °C 10 km+ 5.800 ft 310° 310° 9 kt METAR LFBO 150200Z AUTO 31009KT 9999 FEW048 OVC058 21/15 Q1011 NOSIG
03:30
V
22 °C 10 km+ 5.600 ft 320° 320° 10 kt METAR LFBO 150130Z AUTO 32010KT 9999 SCT044 OVC056 22/15 Q1011 NOSIG
03:00
V
22 °C 10 km+ 5.400 ft 320° 320° 9 kt METAR LFBO 150100Z AUTO 32009KT 9999 FEW042 OVC054 22/15 Q1011 NOSIG
02:30
V
22 °C 10 km+ 4.200 ft 320° 320° 8 kt METAR LFBO 150030Z AUTO 32008KT 9999 BKN042 OVC050 22/15 Q1011 NOSIG
02:00
V
22 °C 10 km+ 4.800 ft 310° 310° 8 kt METAR LFBO 150000Z AUTO 31008KT 9999 OVC048 22/16 Q1011 NOSIG
01:30
V
22 °C 10 km+ 4.300 ft 310° 310° 6 kt METAR LFBO 142330Z AUTO 31006KT 9999 BKN043 OVC049 22/16 Q1011 NOSIG
01:00
V
23 °C 10 km+ 4.400 ft 320° 320° 6 kt METAR LFBO 142300Z AUTO 32006KT 9999 BKN044 23/16 Q1012 NOSIG
00:30
V
23 °C 10 km+ 4.400 ft 330° 330° 7 kt METAR LFBO 142230Z AUTO 33007KT 9999 BKN044 BKN088 23/16 Q1011 NOSIG
00:00
V
23 °C 10 km+ - 340° 340° 8 kt METAR LFBO 142200Z AUTO 34008KT 9999 FEW044 23/16 Q1011 NOSIG

14 de agosto de 2022

Hora Código Clima Temp. Visibilidade Tecto Vento METAR/SPECI
23:30
V
24 °C 10 km+ - 320° 320° 8 kt METAR LFBO 142130Z AUTO 32008KT CAVOK 24/16 Q1011 NOSIG
23:00
V
24 °C 10 km+ - 330° 330° 7 kt METAR LFBO 142100Z AUTO 33007KT CAVOK 24/16 Q1011 NOSIG
22:30
V
25 °C 10 km+ - 310° 310° 8 kt METAR LFBO 142030Z AUTO 31008KT CAVOK 25/15 Q1011 NOSIG
22:00
V
25 °C 10 km+ - 310° 310° 7 kt METAR LFBO 142000Z AUTO 31007KT CAVOK 25/15 Q1011 NOSIG
21:30
V
25 °C 10 km+ - 310° 310° 9 kt METAR LFBO 141930Z AUTO 31009KT CAVOK 25/15 Q1010 NOSIG
21:00
V
26 °C 10 km+ - 310° 310° 10 kt METAR LFBO 141900Z AUTO 31010KT CAVOK 26/16 Q1010 NOSIG
20:30
V
26 °C 10 km+ 12.000 ft 300° 300° 10 kt METAR LFBO 141830Z AUTO 30010KT 9999 FEW047 SCT064 BKN120 26/16 Q1010 NOSIG
20:00
V
26 °C 10 km+ 7.400 ft 320° 320° 10 kt METAR LFBO 141800Z AUTO 32010KT 290V350 9999 FEW047 SCT060 BKN074 26/16 Q1010 NOSIG
19:30
V
27 °C 10 km+ 4.500 ft 330° 330° 11 kt METAR LFBO 141730Z AUTO 33011KT 290V010 9999 BKN045 BKN054 BKN066 27/16 Q1010 NOSIG
19:00
V
27 °C 10 km+ - 330° 330° 11 kt METAR LFBO 141700Z AUTO 33011KT 9999 FEW044 SCT068 27/16 Q1010 TEMPO 29015G25KT BKN040 FEW060CB
18:30
V
27 °C 10 km+ 6.600 ft 330° 330° 11 kt METAR LFBO 141630Z AUTO 33011KT 310V010 9999 FEW042 BKN066 BKN082 27/17 Q1010 TEMPO 29015G25KT BKN040 FEW060CB
18:00
V
27 °C 10 km+ 6.400 ft 330° 330° 12 kt METAR LFBO 141600Z AUTO 33012KT 9999 FEW047 BKN064 BKN074 27/17 Q1010 TEMPO 29015G25KT BKN040 FEW060CB
17:30
V
28 °C 10 km+ 6.600 ft 350° 350° 11 kt METAR LFBO 141530Z AUTO 35011KT 310V020 9999 FEW045 SCT052 BKN066 28/17 Q1010 TEMPO 29015G25KT BKN040 FEW060CB
17:00
V
28 °C 10 km+ 5.600 ft 330° 330° 15 kt METAR LFBO 141500Z AUTO 33015KT 9999 FEW046 BKN056 BKN080 28/17 Q1010 TEMPO 29015G25KT BKN040 FEW060CB
16:30
V
29 °C 10 km+ - 320° 320° 15 kt METAR LFBO 141430Z AUTO 32015KT CAVOK 29/16 Q1010 TEMPO 29015G25KT BKN040 FEW060CB
16:00
V
29 °C 10 km+ - 320° 320° 10 kt METAR LFBO 141400Z AUTO 32010KT 250V030 CAVOK 29/15 Q1010 TEMPO 29015G25KT BKN040 FEW060CB
15:30
V
29 °C 10 km+ 7.400 ft 300° 300° 11 kt METAR LFBO 141330Z AUTO 30011KT 260V330 9999 FEW046 BKN074 29/17 Q1010 TEMPO 29015G25KT BKN040 FEW060CB
15:00
V
29 °C 10 km+ 7.600 ft 280° 280° 11 kt METAR LFBO 141300Z AUTO 28011KT 250V330 9999 FEW044 SCT052 BKN076 29/16 Q1010 TEMPO 29015G25KT BKN040 FEW060CB
Dados mais antigos

Nós e terceiros acompanhamos seu comportamento na internet em nosso site com cookies. Se você continuar, nós assumimos que você concorda com nossa política de cookies. Saiba mais